Time,TemperatureF,DewpointF,PressureIn,WindDirection,WindDirectionDegrees,WindSpeedMPH,WindSpeedGustMPH,Humidity,HourlyPrecipIn,Conditions,Clouds,dailyrainin,SoftwareType,DateUTC
2013-04-03 00:07:00,66.0,64.0,30.08,West,262,0.0,1.0,92,0.00,,,0.00,weatherlink.com 1.10,2013-04-03 04:07:00,
2013-04-03 00:22:00,66.0,64.0,30.08,West,263,0.0,1.0,92,0.00,,,0.00,weatherlink.com 1.10,2013-04-03 04:22:00,
2013-04-03 00:37:00,65.6,63.0,30.08,West,264,0.0,1.0,91,0.00,,,0.00,weatherlink.com 1.10,2013-04-03 04:37:00,
2013-04-03 01:07:00,64.5,62.0,30.07,West,264,0.0,1.0,92,0.00,,,0.00,weatherlink.com 1.10,2013-04-03 05:07:00,
2013-04-03 01:22:00,64.3,62.0,30.07,West,264,0.0,1.0,92,0.00,,,0.00,weatherlink.com 1.10,2013-04-03 05:22:00,
2013-04-03 01:37:00,64.0,62.0,30.07,West,263,0.0,0.0,92,0.00,,,0.00,weatherlink.com 1.10,2013-04-03 05:37:00,
2013-04-03 01:52:00,63.7,61.0,30.06,West,262,0.0,0.0,92,0.00,,,0.00,weatherlink.com 1.10,2013-04-03 05:52:00,
2013-04-03 02:07:00,63.8,62.0,30.05,West,263,0.0,0.0,93,0.00,,,0.00,weatherlink.com 1.10,2013-04-03 06:07:00,
2013-04-03 02:22:00,63.7,62.0,30.04,West,263,0.0,0.0,93,0.00,,,0.00,weatherlink.com 1.10,2013-04-03 06:22:00,
2013-04-03 02:37:00,63.3,61.0,30.03,West,263,0.0,0.0,93,0.00,,,0.00,weatherlink.com 1.10,2013-04-03 06:37:00,
2013-04-03 02:52:00,63.2,61.0,30.03,West,262,0.0,0.0,93,0.00,,,0.00,weatherlink.com 1.10,2013-04-03 06:52:00,
2013-04-03 03:07:00,63.2,62.0,30.03,West,263,0.0,0.0,94,0.00,,,0.00,weatherlink.com 1.10,2013-04-03 07:07:00,
2013-04-03 03:22:00,63.4,62.0,30.02,West,261,0.0,0.0,94,0.00,,,0.00,weatherlink.com 1.10,2013-04-03 07:22:00,
2013-04-03 03:37:00,63.9,63.0,30.01,ESE,105,0.0,1.0,95,0.00,,,0.00,weatherlink.com 1.10,2013-04-03 07:37:00,
2013-04-03 03:52:00,65.0,63.0,30.00,West,266,1.0,3.0,94,0.00,,,0.00,weatherlink.com 1.10,2013-04-03 07:52:00,
2013-04-03 04:08:00,65.3,63.0,30.00,ESE,109,1.0,4.0,93,0.00,,,0.00,weatherlink.com 1.10,2013-04-03 08:08:00,
2013-04-03 04:23:00,65.0,63.0,30.00,East,89,1.0,2.0,92,0.00,,,0.00,weatherlink.com 1.10,2013-04-03 08:23:00,
2013-04-03 04:39:00,65.0,62.0,30.00,ESE,103,0.0,4.0,91,0.00,,,0.00,weatherlink.com 1.10,2013-04-03 08:39:00,
2013-04-03 04:53:00,64.9,62.0,30.01,ENE,68,1.0,3.0,91,0.00,,,0.00,weatherlink.com 1.10,2013-04-03 08:53:00,
2013-04-03 05:08:00,64.8,62.0,30.00,East,92,4.0,4.0,91,0.00,,,0.00,weatherlink.com 1.10,2013-04-03 09:08:00,
2013-04-03 05:23:00,64.7,62.0,30.01,East,101,0.0,4.0,91,0.00,,,0.00,weatherlink.com 1.10,2013-04-03 09:23:00,
2013-04-03 05:38:00,64.6,62.0,30.01,East,82,0.0,2.0,91,0.00,,,0.00,weatherlink.com 1.10,2013-04-03 09:38:00,
2013-04-03 05:53:00,64.5,62.0,30.01,ENE,63,0.0,3.0,92,0.00,,,0.00,weatherlink.com 1.10,2013-04-03 09:53:00,
2013-04-03 06:08:00,64.5,63.0,30.01,ENE,69,0.0,2.0,93,0.00,,,0.00,weatherlink.com 1.10,2013-04-03 10:08:00,
2013-04-03 06:23:00,64.3,63.0,30.00,SSW,198,0.0,3.0,94,0.00,,,0.00,weatherlink.com 1.10,2013-04-03 10:23:00,
2013-04-03 06:38:00,64.5,63.0,30.01,East,86,1.0,3.0,94,0.00,,,0.00,weatherlink.com 1.10,2013-04-03 10:38:00,
2013-04-03 06:53:00,64.6,63.0,30.01,East,98,1.0,5.0,95,0.00,,,0.00,weatherlink.com 1.10,2013-04-03 10:53:00,
2013-04-03 07:08:00,64.7,63.0,30.01,ENE,70,1.0,2.0,95,0.00,,,0.00,weatherlink.com 1.10,2013-04-03 11:08:00,
2013-04-03 07:23:00,65.2,64.0,30.01,SE,136,0.0,6.0,95,0.00,,,0.00,weatherlink.com 1.10,2013-04-03 11:23:00,
2013-04-03 07:38:00,65.7,64.0,30.01,SSE,165,1.0,5.0,95,0.00,,,0.00,weatherlink.com 1.10,2013-04-03 11:38:00,
2013-04-03 07:53:00,66.2,65.0,30.00,SW,215,3.0,7.0,95,0.00,,,0.00,weatherlink.com 1.10,2013-04-03 11:53:00,
2013-04-03 08:08:00,67.3,66.0,30.01,East,93,2.0,7.0,95,0.00,,,0.00,weatherlink.com 1.10,2013-04-03 12:08:00,
2013-04-03 08:23:00,68.4,66.0,30.02,SE,134,2.0,9.0,93,0.00,,,0.00,weatherlink.com 1.10,2013-04-03 12:23:00,
2013-04-03 08:38:00,69.6,67.0,30.03,South,169,2.0,8.0,91,0.00,,,0.00,weatherlink.com 1.10,2013-04-03 12:38:00,
2013-04-03 08:53:00,70.6,67.0,30.03,South,180,2.0,9.0,89,0.00,,,0.00,weatherlink.com 1.10,2013-04-03 12:53:00,
2013-04-03 09:08:00,71.9,68.0,30.04,SSW,207,1.0,10.0,87,0.00,,,0.00,weatherlink.com 1.10,2013-04-03 13:08:00,
2013-04-03 09:23:00,73.2,68.0,30.03,SW,215,6.0,10.0,84,0.00,,,0.00,weatherlink.com 1.10,2013-04-03 13:23:00,
2013-04-03 09:38:00,74.6,69.0,30.04,SW,228,6.0,10.0,83,0.00,,,0.00,weatherlink.com 1.10,2013-04-03 13:38:00,
2013-04-03 09:53:00,75.3,69.0,30.03,SSW,208,2.0,11.0,81,0.00,,,0.00,weatherlink.com 1.10,2013-04-03 13:53:00,
2013-04-03 10:08:00,76.0,69.0,30.03,SSE,163,8.0,10.0,79,0.00,,,0.00,weatherlink.com 1.10,2013-04-03 14:08:00,
2013-04-03 10:23:00,76.5,70.0,30.03,ESE,116,5.0,10.0,79,0.00,,,0.00,weatherlink.com 1.10,2013-04-03 14:23:00,
2013-04-03 10:38:00,77.6,70.0,30.03,SSW,210,5.0,12.0,77,0.00,,,0.00,weatherlink.com 1.10,2013-04-03 14:38:00,
2013-04-03 10:53:00,78.7,70.0,30.04,South,169,2.0,11.0,74,0.00,,,0.00,weatherlink.com 1.10,2013-04-03 14:53:00,
2013-04-03 11:08:00,78.6,70.0,30.02,SSE,150,9.0,10.0,74,0.00,,,0.00,weatherlink.com 1.10,2013-04-03 15:08:00,
2013-04-03 11:23:00,78.8,69.0,30.01,SSW,194,7.0,11.0,72,0.00,,,0.00,weatherlink.com 1.10,2013-04-03 15:23:00,
2013-04-03 11:38:00,78.8,69.0,30.01,SSE,163,7.0,15.0,73,0.00,,,0.00,weatherlink.com 1.10,2013-04-03 15:38:00,
2013-04-03 11:53:00,78.1,69.0,30.00,South,187,6.0,15.0,74,0.00,,,0.00,weatherlink.com 1.10,2013-04-03 15:53:00,
2013-04-03 12:08:00,78.1,69.0,30.01,South,174,10.0,12.0,74,0.00,,,0.00,weatherlink.com 1.10,2013-04-03 16:08:00,
2013-04-03 12:23:00,78.7,69.0,30.01,South,179,3.0,12.0,71,0.00,,,0.00,weatherlink.com 1.10,2013-04-03 16:23:00,
2013-04-03 13:24:00,78.9,67.0,29.99,SSE,167,7.0,16.0,68,0.00,,,0.00,weatherlink.com 1.10,2013-04-03 17:24:00,
2013-04-03 13:39:00,78.2,68.0,30.00,SSW,207,9.0,15.0,71,0.00,,,0.00,weatherlink.com 1.10,2013-04-03 17:39:00,
2013-04-03 13:54:00,77.9,68.0,29.99,SSW,205,4.0,13.0,72,0.00,,,0.00,weatherlink.com 1.10,2013-04-03 17:54:00,
2013-04-03 14:09:00,77.9,68.0,30.00,SW,215,8.0,13.0,71,0.00,,,0.00,weatherlink.com 1.10,2013-04-03 18:09:00,
2013-04-03 14:24:00,77.6,68.0,30.00,SSW,203,7.0,13.0,73,0.00,,,0.00,weatherlink.com 1.10,2013-04-03 18:24:00,
2013-04-03 15:09:00,76.6,69.0,29.99,SSW,212,8.0,13.0,76,0.00,,,0.00,weatherlink.com 1.10,2013-04-03 19:09:00,
2013-04-03 15:24:00,76.7,69.0,29.98,SSW,195,7.0,13.0,76,0.00,,,0.00,weatherlink.com 1.10,2013-04-03 19:24:00,
2013-04-03 15:39:00,76.6,69.0,29.97,WSW,245,6.0,13.0,77,0.00,,,0.00,weatherlink.com 1.10,2013-04-03 19:39:00,
2013-04-03 15:54:00,76.5,69.0,29.97,SSW,195,9.0,13.0,77,0.00,,,0.00,weatherlink.com 1.10,2013-04-03 19:54:00,
2013-04-03 16:09:00,76.4,69.0,29.98,SW,221,8.0,13.0,78,0.00,,,0.00,weatherlink.com 1.10,2013-04-03 20:09:00,
2013-04-03 16:24:00,76.5,69.0,29.98,SW,219,9.0,15.0,77,0.00,,,0.00,weatherlink.com 1.10,2013-04-03 20:24:00,
2013-04-03 16:39:00,75.5,69.0,29.97,SSW,210,14.0,14.0,79,0.00,,,0.00,weatherlink.com 1.10,2013-04-03 20:39:00,
2013-04-03 16:54:00,75.5,69.0,29.97,SSW,195,5.0,12.0,80,0.00,,,0.00,weatherlink.com 1.10,2013-04-03 20:54:00,
2013-04-03 17:09:00,74.8,69.0,29.96,SSE,165,11.0,13.0,81,0.00,,,0.00,weatherlink.com 1.10,2013-04-03 21:09:00,
2013-04-03 17:24:00,74.3,69.0,29.96,SSW,212,10.0,13.0,83,0.00,,,0.00,weatherlink.com 1.10,2013-04-03 21:24:00,
2013-04-03 17:39:00,74.1,69.0,29.96,SSW,197,7.0,10.0,84,0.00,,,0.00,weatherlink.com 1.10,2013-04-03 21:39:00,
2013-04-03 17:54:00,73.5,69.0,29.96,SW,218,7.0,10.0,85,0.00,,,0.00,weatherlink.com 1.10,2013-04-03 21:54:00,
2013-04-03 18:09:00,73.5,69.0,29.95,SW,219,7.0,11.0,86,0.00,,,0.00,weatherlink.com 1.10,2013-04-03 22:09:00,
2013-04-03 18:24:00,73.7,69.0,29.95,WSW,243,7.0,8.0,85,0.00,,,0.00,weatherlink.com 1.10,2013-04-03 22:24:00,
2013-04-03 18:39:00,73.2,69.0,29.96,WSW,245,8.0,10.0,86,0.00,,,0.00,weatherlink.com 1.10,2013-04-03 22:39:00,
2013-04-03 18:54:00,72.6,69.0,29.96,SW,214,4.0,8.0,88,0.00,,,0.00,weatherlink.com 1.10,2013-04-03 22:54:00,
2013-04-03 19:09:00,72.1,69.0,29.96,SW,224,5.0,10.0,89,0.00,,,0.00,weatherlink.com 1.10,2013-04-03 23:09:00,
2013-04-03 19:24:00,71.9,69.0,29.96,SSW,200,5.0,9.0,90,0.00,,,0.00,weatherlink.com 1.10,2013-04-03 23:24:00,
2013-04-03 19:39:00,71.7,69.0,29.97,SW,215,6.0,9.0,90,0.00,,,0.00,weatherlink.com 1.10,2013-04-03 23:39:00,
2013-04-03 19:54:00,71.8,69.0,29.97,South,184,3.0,8.0,90,0.00,,,0.00,weatherlink.com 1.10,2013-04-03 23:54:00,
2013-04-03 20:09:00,71.9,69.0,29.97,SW,219,3.0,7.0,90,0.00,,,0.00,weatherlink.com 1.10,2013-04-04 00:09:00,
2013-04-03 20:24:00,71.9,69.0,29.98,SSW,197,5.0,10.0,90,0.00,,,0.00,weatherlink.com 1.10,2013-04-04 00:24:00,
2013-04-03 20:39:00,71.5,69.0,30.00,SW,232,5.0,8.0,91,0.04,,,0.04,weatherlink.com 1.10,2013-04-04 00:39:00,
2013-04-03 20:54:00,70.7,69.0,30.00,South,177,2.0,5.0,93,0.05,,,0.05,weatherlink.com 1.10,2013-04-04 00:54:00,
2013-04-03 21:09:00,70.6,69.0,29.99,SSW,207,2.0,4.0,93,0.06,,,0.06,weatherlink.com 1.10,2013-04-04 01:09:00,
2013-04-03 21:24:00,70.7,69.0,30.00,SSW,208,2.0,3.0,94,0.06,,,0.06,weatherlink.com 1.10,2013-04-04 01:24:00,
2013-04-03 21:39:00,70.8,69.0,30.00,SSE,150,1.0,3.0,94,0.02,,,0.06,weatherlink.com 1.10,2013-04-04 01:39:00,
2013-04-03 21:54:00,70.8,69.0,30.02,SW,215,2.0,3.0,94,0.01,,,0.06,weatherlink.com 1.10,2013-04-04 01:54:00,
2013-04-03 22:09:00,70.5,69.0,30.03,SW,232,1.0,2.0,94,0.00,,,0.06,weatherlink.com 1.10,2013-04-04 02:09:00,
2013-04-03 22:24:00,69.9,68.0,30.04,WSW,248,5.0,8.0,94,0.07,,,0.13,weatherlink.com 1.10,2013-04-04 02:24:00,
2013-04-03 22:39:00,69.5,68.0,30.03,SSW,202,5.0,10.0,93,0.07,,,0.13,weatherlink.com 1.10,2013-04-04 02:39:00,
2013-04-03 22:54:00,69.8,67.0,30.03,SSW,212,4.0,7.0,91,0.07,,,0.13,weatherlink.com 1.10,2013-04-04 02:54:00,
2013-04-03 23:24:00,71.0,68.0,30.01,SW,215,9.0,11.0,91,0.00,,,0.13,weatherlink.com 1.10,2013-04-04 03:24:00,
2013-04-03 23:39:00,71.1,69.0,30.00,SSW,203,4.0,11.0,92,0.00,,,0.13,weatherlink.com 1.10,2013-04-04 03:39:00,
2013-04-03 23:54:00,71.4,69.0,30.00,South,176,5.0,11.0,93,0.00,,,0.13,weatherlink.com 1.10,2013-04-04 03:54:00,